createdAt,value
2017-11-18T00:02:11.674Z,87.60
2017-11-18T00:04:39.142Z,87.80
2017-11-18T00:07:06.629Z,87.10
2017-11-18T00:09:34.110Z,87.60
2017-11-18T00:12:05.253Z,87.60
2017-11-18T00:14:32.726Z,87.60
2017-11-18T00:17:00.320Z,86.90
2017-11-18T00:19:28.831Z,87.10
2017-11-18T00:21:56.282Z,87.40
2017-11-18T00:24:23.765Z,87.10
2017-11-18T00:26:51.220Z,88.00
2017-11-18T00:29:18.761Z,87.80
2017-11-18T00:31:46.229Z,87.10
2017-11-18T00:34:13.691Z,87.30
2017-11-18T00:36:41.147Z,88.20
2017-11-18T00:39:08.603Z,87.70
2017-11-18T00:41:36.093Z,88.00
2017-11-18T00:44:03.552Z,88.10
2017-11-18T00:46:31.172Z,86.00
2017-11-18T00:48:58.627Z,85.80
2017-11-18T00:51:26.115Z,86.20
2017-11-18T00:53:53.572Z,86.40
2017-11-18T00:56:21.051Z,86.50
2017-11-18T00:58:48.529Z,86.70
2017-11-18T01:01:16.785Z,87.50
2017-11-18T01:03:44.881Z,87.50
2017-11-18T01:06:13.096Z,88.50
2017-11-18T01:08:40.572Z,88.50
2017-11-18T01:11:08.032Z,88.50
2017-11-18T01:13:35.503Z,88.70
2017-11-18T01:16:03.904Z,89.20
2017-11-18T01:18:31.414Z,89.70
2017-11-18T01:20:59.086Z,89.70
2017-11-18T01:23:26.543Z,89.80
2017-11-18T01:25:54.016Z,89.80
2017-11-18T01:28:21.545Z,89.00
2017-11-18T01:30:49.104Z,88.80
2017-11-18T01:33:16.556Z,88.90
2017-11-18T01:35:44.150Z,89.00
2017-11-18T01:38:11.602Z,89.40
2017-11-18T01:40:39.065Z,89.90
2017-11-18T01:43:06.529Z,89.90
2017-11-18T01:45:34.747Z,90.10
2017-11-18T01:48:02.303Z,90.10
2017-11-18T01:50:29.759Z,90.00
2017-11-18T01:52:57.352Z,89.90
2017-11-18T01:55:24.827Z,90.00
2017-11-18T01:57:52.288Z,89.60
2017-11-18T02:00:20.506Z,89.90
2017-11-18T02:02:47.992Z,89.90
2017-11-18T02:05:15.460Z,90.10
2017-11-18T02:07:42.957Z,90.30
2017-11-18T02:10:10.417Z,90.40
2017-11-18T02:12:37.898Z,90.30
2017-11-18T02:15:05.471Z,90.40
2017-11-18T02:17:32.917Z,90.60
2017-11-18T02:20:00.390Z,90.60
2017-11-18T02:22:27.966Z,90.60
2017-11-18T02:24:55.427Z,90.60
2017-11-18T02:27:23.675Z,90.80
2017-11-18T02:29:51.322Z,90.50
2017-11-18T02:32:18.790Z,90.70
2017-11-18T02:34:46.263Z,90.90
2017-11-18T02:37:13.729Z,91.10
2017-11-18T02:39:41.224Z,91.10
2017-11-18T02:42:08.706Z,90.90
2017-11-18T02:44:36.214Z,90.90
2017-11-18T02:47:03.767Z,91.10
2017-11-18T02:49:31.244Z,91.00
2017-11-18T02:51:59.496Z,91.10
2017-11-18T02:54:29.465Z,91.10
2017-11-18T02:56:56.943Z,91.10
2017-11-18T02:59:24.415Z,91.00
2017-11-18T03:01:51.892Z,91.30
2017-11-18T03:04:19.373Z,91.30
2017-11-18T03:06:47.493Z,91.10
2017-11-18T03:09:14.972Z,91.00
2017-11-18T03:11:42.482Z,90.70
2017-11-18T03:14:09.949Z,90.50
2017-11-18T03:16:37.415Z,90.00
2017-11-18T03:19:04.962Z,89.50
2017-11-18T03:21:32.416Z,89.60
2017-11-18T03:23:59.916Z,89.30
2017-11-18T03:26:27.467Z,89.40
2017-11-18T03:28:54.947Z,89.20
2017-11-18T03:31:23.177Z,89.40
2017-11-18T03:33:50.651Z,89.40
2017-11-18T03:36:18.121Z,89.70
2017-11-18T03:38:45.574Z,90.00
2017-11-18T03:41:13.068Z,90.10
2017-11-18T03:43:40.554Z,90.30
2017-11-18T03:46:08.016Z,90.50
2017-11-18T03:48:35.540Z,90.60
2017-11-18T03:51:03.007Z,90.60
2017-11-18T03:53:30.476Z,90.60
2017-11-18T03:55:57.980Z,90.80
2017-11-18T03:58:25.440Z,90.90
2017-11-18T04:00:57.356Z,91.00
2017-11-18T04:03:24.900Z,91.00
2017-11-18T04:05:52.359Z,91.10
2017-11-18T04:08:19.887Z,91.10
2017-11-18T04:10:48.114Z,91.10
2017-11-18T04:13:15.681Z,91.10
2017-11-18T04:15:44.587Z,91.10
2017-11-18T04:18:12.129Z,91.10
2017-11-18T04:20:39.843Z,91.20
2017-11-18T04:23:07.303Z,91.20
2017-11-18T04:25:34.791Z,91.20
2017-11-18T04:28:02.257Z,91.10
2017-11-18T04:30:29.742Z,91.30
2017-11-18T04:32:57.215Z,91.40
2017-11-18T04:35:25.463Z,91.20
2017-11-18T04:37:52.950Z,91.10
2017-11-18T04:40:21.219Z,90.90
2017-11-18T04:42:49.469Z,90.90
2017-11-18T04:45:16.944Z,90.90
2017-11-18T04:47:45.174Z,91.50
2017-11-18T04:50:12.626Z,91.10
2017-11-18T04:52:40.098Z,91.30
2017-11-18T04:55:07.575Z,91.30
2017-11-18T04:57:35.251Z,91.20
2017-11-18T05:00:02.717Z,91.10
2017-11-18T05:02:30.981Z,91.20
2017-11-18T05:04:58.454Z,91.20
2017-11-18T05:07:26.713Z,91.20
2017-11-18T05:09:54.188Z,91.20
2017-11-18T05:12:22.414Z,91.10
2017-11-18T05:14:49.897Z,91.10
2017-11-18T05:19:52.133Z,90.70
2017-11-18T05:22:19.590Z,90.80
2017-11-18T05:24:47.114Z,90.90
2017-11-18T05:27:15.343Z,90.80
2017-11-18T05:29:42.819Z,90.80
2017-11-18T05:32:10.285Z,90.60
2017-11-18T05:34:37.767Z,90.70
2017-11-18T05:37:06.009Z,90.70
2017-11-18T05:39:33.587Z,90.70
2017-11-18T05:42:01.987Z,90.60
2017-11-18T05:44:29.445Z,90.60
2017-11-18T05:46:56.934Z,90.50
2017-11-18T05:49:24.481Z,90.40
2017-11-18T05:51:52.268Z,90.50
2017-11-18T05:54:19.731Z,90.50
2017-11-18T05:56:47.204Z,90.40
2017-11-18T05:59:14.675Z,90.20
2017-11-18T06:01:42.902Z,90.40
2017-11-18T06:04:10.425Z,90.30
2017-11-18T06:06:37.909Z,90.20
2017-11-18T06:09:05.418Z,90.30
2017-11-18T06:11:33.646Z,90.00
2017-11-18T06:14:01.277Z,90.00
2017-11-18T06:16:28.758Z,90.30
2017-11-18T06:18:56.230Z,89.80
2017-11-18T06:21:23.694Z,90.00
2017-11-18T06:23:51.424Z,89.80
2017-11-18T06:26:18.964Z,90.10
2017-11-18T06:28:47.394Z,89.40
2017-11-18T06:31:14.872Z,89.50
2017-11-18T06:33:42.343Z,89.20
2017-11-18T06:36:10.593Z,89.90
2017-11-18T06:38:38.091Z,89.70
2017-11-18T06:41:05.625Z,89.00
2017-11-18T06:43:33.291Z,89.00
2017-11-18T06:46:00.751Z,89.00
2017-11-18T06:48:29.031Z,88.40
2017-11-18T06:50:57.393Z,88.70
2017-11-18T06:53:24.853Z,88.80
2017-11-18T06:55:52.421Z,88.80
2017-11-18T06:58:20.673Z,88.50
2017-11-18T07:00:48.141Z,88.40
2017-11-18T07:03:15.642Z,88.20
2017-11-18T07:05:43.867Z,88.70
2017-11-18T07:08:11.487Z,88.00
2017-11-18T07:10:39.190Z,88.70
2017-11-18T07:13:06.822Z,88.50
2017-11-18T07:15:34.323Z,88.00
2017-11-18T07:18:02.299Z,87.70
2017-11-18T07:20:30.547Z,88.20
2017-11-18T07:23:02.978Z,88.20
2017-11-18T07:25:30.544Z,87.40
2017-11-18T07:27:58.332Z,87.50
2017-11-18T07:30:25.796Z,87.10
2017-11-18T07:32:53.387Z,87.20
2017-11-18T07:35:22.034Z,87.30
2017-11-18T07:37:50.492Z,87.70
2017-11-18T07:40:18.102Z,87.70
2017-11-18T07:42:46.463Z,87.20
2017-11-18T07:45:14.100Z,87.10
2017-11-18T07:47:41.967Z,87.60
2017-11-18T07:50:09.442Z,87.10
2017-11-18T07:52:37.115Z,87.40
2017-11-18T07:55:05.695Z,87.90
2017-11-18T07:57:33.401Z,87.90
2017-11-18T08:00:00.872Z,88.30
2017-11-18T08:02:28.391Z,88.90
2017-11-18T08:04:57.433Z,87.90
2017-11-18T08:07:24.942Z,87.90
2017-11-18T08:09:53.373Z,88.40
2017-11-18T08:12:20.873Z,88.40
2017-11-18T08:14:49.208Z,88.20
2017-11-18T08:17:16.684Z,88.10
2017-11-18T08:19:44.137Z,88.10
2017-11-18T08:22:11.611Z,88.40
2017-11-18T08:24:39.508Z,88.30
2017-11-18T08:27:08.537Z,88.60
2017-11-18T08:29:36.805Z,88.60
2017-11-18T08:32:04.373Z,88.20
2017-11-18T08:34:31.987Z,88.30
2017-11-18T08:37:00.250Z,88.50
2017-11-18T08:39:27.767Z,88.50
2017-11-18T08:41:55.238Z,88.20
2017-11-18T08:44:22.726Z,88.20
2017-11-18T08:46:52.041Z,87.90
2017-11-18T08:49:19.958Z,87.90
2017-11-18T08:51:47.730Z,88.10
2017-11-18T08:54:16.349Z,87.50
2017-11-18T08:56:44.019Z,87.40
2017-11-18T08:59:11.561Z,87.30
2017-11-18T09:01:39.124Z,87.60
2017-11-18T09:04:07.372Z,87.40
2017-11-18T09:06:34.953Z,87.40
2017-11-18T09:09:03.174Z,87.10
2017-11-18T09:11:30.722Z,87.00
2017-11-18T09:13:58.292Z,86.50
2017-11-18T09:16:25.926Z,86.10
2017-11-18T09:18:54.170Z,86.50
2017-11-18T09:21:23.172Z,86.80
2017-11-18T09:23:50.681Z,86.80
2017-11-18T09:26:18.179Z,87.10
2017-11-18T09:28:45.661Z,86.30
2017-11-18T09:31:14.030Z,87.10
2017-11-18T09:33:42.476Z,86.50
2017-11-18T09:36:09.938Z,86.50
2017-11-18T09:38:37.418Z,86.30
2017-11-18T09:41:04.885Z,86.60
2017-11-18T09:43:33.159Z,86.90
2017-11-18T09:46:01.581Z,86.50
2017-11-18T09:48:29.853Z,86.40
2017-11-18T09:50:57.301Z,86.60
2017-11-18T09:53:24.765Z,86.40
2017-11-18T09:55:52.753Z,86.50
2017-11-18T09:58:20.274Z,86.50
2017-11-18T10:00:47.748Z,86.00
2017-11-18T10:03:15.238Z,86.10
2017-11-18T10:05:42.992Z,85.80
2017-11-18T10:08:10.466Z,86.10
2017-11-18T10:10:37.954Z,85.30
2017-11-18T10:13:06.173Z,85.70
2017-11-18T10:15:33.664Z,85.60
2017-11-18T10:18:01.165Z,85.10
2017-11-18T10:20:28.674Z,84.30
2017-11-18T10:22:56.329Z,84.30
2017-11-18T10:25:23.819Z,84.80
2017-11-18T10:27:52.080Z,84.70
2017-11-18T10:30:19.828Z,84.70
2017-11-18T10:32:47.377Z,84.60
2017-11-18T10:35:14.906Z,83.80
2017-11-18T10:37:42.401Z,84.60
2017-11-18T10:40:09.922Z,83.90
2017-11-18T10:42:37.422Z,84.40
2017-11-18T10:45:04.900Z,84.60
2017-11-18T10:47:33.625Z,84.50
2017-11-18T10:50:01.101Z,83.90
2017-11-18T10:52:28.812Z,84.20
2017-11-18T10:54:57.960Z,84.00
2017-11-18T10:57:31.099Z,84.00
2017-11-18T10:59:58.916Z,83.40
2017-11-18T11:02:26.518Z,84.30
2017-11-18T11:05:05.732Z,83.00
2017-11-18T11:07:33.185Z,83.00
2017-11-18T11:10:00.708Z,83.80
2017-11-18T11:12:28.305Z,82.80
2017-11-18T11:14:56.594Z,83.40
2017-11-18T11:17:25.059Z,83.80
2017-11-18T11:19:52.537Z,83.80
2017-11-18T11:22:20.766Z,83.50
2017-11-18T11:24:48.272Z,83.50
2017-11-18T11:27:15.866Z,83.20
2017-11-18T11:29:43.628Z,84.00
2017-11-18T11:32:11.158Z,83.40
2017-11-18T11:34:38.722Z,82.40
2017-11-18T11:37:06.300Z,82.80
2017-11-18T11:39:33.815Z,82.80
2017-11-18T11:42:01.421Z,83.90
2017-11-18T11:44:28.937Z,82.80
2017-11-18T11:46:56.438Z,82.40
2017-11-18T11:49:23.933Z,83.30
2017-11-18T11:51:51.431Z,82.90
2017-11-18T11:54:19.020Z,82.90
2017-11-18T11:56:46.504Z,82.60
2017-11-18T11:59:14.008Z,83.40
2017-11-18T12:01:41.493Z,82.90
2017-11-18T12:04:10.463Z,82.30
2017-11-18T12:06:37.931Z,82.80
2017-11-18T12:09:05.417Z,82.10
2017-11-18T12:11:32.894Z,82.00
2017-11-18T12:14:00.355Z,81.50
2017-11-18T12:16:28.607Z,82.00
2017-11-18T12:18:56.069Z,82.00
2017-11-18T12:21:23.548Z,80.90
2017-11-18T12:23:51.782Z,81.60
2017-11-18T12:26:19.265Z,80.90
2017-11-18T12:28:46.958Z,81.00
2017-11-18T12:31:15.203Z,80.50
2017-11-18T12:33:42.693Z,80.50
2017-11-18T12:36:10.165Z,81.00
2017-11-18T12:38:37.634Z,80.60
2017-11-18T12:41:05.229Z,81.10
2017-11-18T12:43:32.698Z,81.10
2017-11-18T12:46:00.172Z,81.50
2017-11-18T12:48:28.508Z,81.20
2017-11-18T12:50:56.022Z,81.20
2017-11-18T12:53:23.524Z,81.60
2017-11-18T12:55:51.040Z,81.10
2017-11-18T12:58:19.284Z,81.10
2017-11-18T13:00:46.826Z,81.00
2017-11-18T13:03:14.397Z,81.60
2017-11-18T13:05:41.877Z,81.10
2017-11-18T13:08:10.118Z,79.50
2017-11-18T13:10:37.622Z,79.50
2017-11-18T13:13:05.573Z,79.50
2017-11-18T13:15:33.938Z,79.60
2017-11-18T13:18:02.208Z,77.40
2017-11-18T13:20:29.692Z,77.30
2017-11-18T13:22:57.173Z,78.30
2017-11-18T13:25:24.658Z,78.60
2017-11-18T13:27:52.348Z,79.20
2017-11-18T13:30:20.645Z,78.80
2017-11-18T13:32:48.643Z,78.80
2017-11-18T13:35:16.181Z,79.60
2017-11-18T13:37:43.698Z,79.70
2017-11-18T13:40:11.166Z,79.90
2017-11-18T13:42:39.538Z,80.70
2017-11-18T13:45:07.021Z,80.10
2017-11-18T13:47:35.247Z,81.60
2017-11-18T13:50:02.752Z,82.30
2017-11-18T13:52:31.026Z,80.80
2017-11-18T13:54:59.252Z,81.70
2017-11-18T13:57:27.227Z,81.70
2017-11-18T13:59:54.690Z,82.20
2017-11-18T14:02:22.209Z,81.40
2017-11-18T14:04:49.688Z,81.70
2017-11-18T14:07:17.192Z,82.20
2017-11-18T14:09:44.840Z,82.40
2017-11-18T14:12:12.550Z,82.30
2017-11-18T14:14:40.227Z,82.60
2017-11-18T14:17:07.731Z,83.40
2017-11-18T14:19:36.026Z,83.30
2017-11-18T14:22:03.484Z,83.30
2017-11-18T14:24:31.090Z,83.00
2017-11-18T14:26:58.559Z,83.10
2017-11-18T14:29:26.039Z,83.10
2017-11-18T14:31:54.285Z,84.00
2017-11-18T14:34:21.771Z,84.00
2017-11-18T14:36:50.053Z,83.70
2017-11-18T14:39:18.293Z,83.90
2017-11-18T14:41:45.782Z,83.90
2017-11-18T14:44:14.154Z,83.80
2017-11-18T14:46:42.423Z,83.30
2017-11-18T14:49:09.902Z,83.20
2017-11-18T14:51:37.430Z,83.80
2017-11-18T14:54:04.930Z,83.70
2017-11-18T14:56:32.415Z,84.00
2017-11-18T14:58:59.878Z,84.00
2017-11-18T15:01:27.397Z,84.50
2017-11-18T15:03:54.855Z,84.20
2017-11-18T15:06:22.347Z,83.70
2017-11-18T15:08:49.858Z,84.60
2017-11-18T15:11:18.086Z,84.60
2017-11-18T15:13:45.625Z,84.60
2017-11-18T15:16:18.922Z,84.90
2017-11-18T15:18:55.806Z,85.20
2017-11-18T15:21:43.943Z,85.30
2017-11-18T15:24:17.037Z,84.90
2017-11-18T15:26:50.172Z,85.20
2017-11-18T15:29:23.966Z,85.50
2017-11-18T15:32:10.363Z,85.50
2017-11-18T15:34:43.555Z,86.30
2017-11-18T15:37:25.945Z,86.50
2017-11-18T15:39:53.410Z,86.30
2017-11-18T15:42:20.891Z,86.30
2017-11-18T15:45:06.906Z,86.80
2017-11-18T15:47:50.187Z,86.70
2017-11-18T15:50:23.460Z,86.90
2017-11-18T15:53:05.821Z,87.20
2017-11-18T15:55:38.867Z,87.30
2017-11-18T15:58:23.112Z,87.30
2017-11-18T16:00:56.138Z,87.30
2017-11-18T16:03:39.359Z,87.50
2017-11-18T16:06:07.621Z,87.60
2017-11-18T16:08:35.928Z,88.00
2017-11-18T16:11:03.515Z,87.60
2017-11-18T16:13:30.991Z,88.70
2017-11-18T16:15:58.487Z,89.30
2017-11-18T16:18:26.721Z,90.00
2017-11-18T16:20:54.341Z,90.00
2017-11-18T16:23:21.831Z,89.90
2017-11-18T16:25:49.439Z,89.70
2017-11-18T16:28:17.783Z,90.10
2017-11-18T16:30:45.292Z,90.10
2017-11-18T16:33:12.791Z,90.00
2017-11-18T16:35:40.268Z,90.10
2017-11-18T16:38:07.757Z,90.30
2017-11-18T16:40:35.978Z,90.10
2017-11-18T16:43:03.541Z,90.10
2017-11-18T16:45:31.026Z,90.20
2017-11-18T16:47:59.266Z,90.40
2017-11-18T16:50:26.739Z,90.20
2017-11-18T16:52:54.994Z,90.10
2017-11-18T16:55:22.465Z,90.10
2017-11-18T16:57:49.946Z,90.20
2017-11-18T17:00:17.491Z,90.30
2017-11-18T17:02:44.964Z,90.10
2017-11-18T17:05:12.445Z,90.20
2017-11-18T17:07:39.955Z,90.30
2017-11-18T17:10:07.462Z,90.20
2017-11-18T17:12:34.924Z,90.20
2017-11-18T17:15:02.403Z,90.30
2017-11-18T17:17:29.877Z,90.20
2017-11-18T17:19:57.353Z,90.30
2017-11-18T17:22:24.827Z,90.20
2017-11-18T17:24:53.077Z,90.40
2017-11-18T17:27:20.627Z,90.40
2017-11-18T17:29:48.081Z,90.70
2017-11-18T17:32:15.567Z,90.70
2017-11-18T17:34:43.041Z,90.70
2017-11-18T17:37:12.113Z,90.60
2017-11-18T17:39:39.597Z,90.60
2017-11-18T17:42:07.851Z,90.60
2017-11-18T17:44:35.331Z,90.60
2017-11-18T17:47:03.570Z,90.70
2017-11-18T17:49:31.058Z,90.60
2017-11-18T17:51:59.286Z,90.80
2017-11-18T17:54:27.514Z,90.80
2017-11-18T17:56:54.986Z,90.80
2017-11-18T17:59:22.600Z,90.90
2017-11-18T18:01:50.056Z,90.70
2017-11-18T18:04:17.582Z,90.80
2017-11-18T18:06:45.062Z,90.80
2017-11-18T18:09:12.522Z,90.80
2017-11-18T18:11:40.007Z,90.90
2017-11-18T18:14:08.238Z,91.10
2017-11-18T18:16:35.722Z,91.10
2017-11-18T18:19:03.181Z,90.90
2017-11-18T18:21:30.670Z,90.80
2017-11-18T18:23:58.255Z,90.60
2017-11-18T18:26:25.777Z,90.90
2017-11-18T18:28:54.028Z,90.90
2017-11-18T18:31:21.486Z,90.90
2017-11-18T18:33:48.984Z,91.30
2017-11-18T18:36:16.544Z,91.20
2017-11-18T18:38:44.027Z,91.50
2017-11-18T18:41:11.677Z,91.90
2017-11-18T18:43:39.166Z,92.20
2017-11-18T18:46:06.643Z,92.50
2017-11-18T18:48:34.897Z,92.90
2017-11-18T18:51:02.431Z,92.90
2017-11-18T18:53:29.913Z,93.30
2017-11-18T18:55:57.374Z,93.60
2017-11-18T18:58:24.868Z,93.50
2017-11-18T19:00:52.393Z,93.90
2017-11-18T19:03:20.054Z,94.00
2017-11-18T19:05:48.344Z,94.30
2017-11-18T19:08:16.607Z,94.30
2017-11-18T19:10:44.160Z,94.30
2017-11-18T19:13:11.641Z,94.30
2017-11-18T19:15:43.809Z,94.20
2017-11-18T19:18:12.043Z,94.30
2017-11-18T19:20:39.511Z,94.30
2017-11-18T19:23:06.990Z,94.40
2017-11-18T19:25:35.415Z,94.50
2017-11-18T19:28:02.910Z,94.50
2017-11-18T19:30:31.898Z,94.70
2017-11-18T19:32:59.439Z,94.70
2017-11-18T19:35:26.911Z,94.80
2017-11-18T19:37:54.375Z,94.90
2017-11-18T19:40:21.842Z,95.10
2017-11-18T19:42:49.559Z,95.10
2017-11-18T19:45:17.088Z,95.00
2017-11-18T19:47:44.569Z,94.80
2017-11-18T19:50:12.079Z,94.50
2017-11-18T19:52:39.552Z,94.50
2017-11-18T19:55:07.795Z,94.90
2017-11-18T19:57:35.754Z,94.90
2017-11-18T20:00:03.231Z,94.90
2017-11-18T20:05:20.063Z,94.80
2017-11-18T20:07:49.171Z,94.90
2017-11-18T20:10:17.527Z,94.80
2017-11-18T20:12:45.031Z,94.80
2017-11-18T20:15:12.532Z,94.70
2017-11-18T20:17:41.842Z,94.80
2017-11-18T20:20:09.290Z,94.80
2017-11-18T20:22:36.810Z,94.50
2017-11-18T20:25:04.295Z,94.20
2017-11-18T20:27:31.801Z,94.00
2017-11-18T20:30:00.060Z,94.00
2017-11-18T20:32:28.818Z,93.90
2017-11-18T20:34:56.266Z,93.90
2017-11-18T20:37:23.918Z,94.20
2017-11-18T20:39:51.471Z,94.10
2017-11-18T20:42:19.162Z,94.00
2017-11-18T20:44:46.617Z,94.10
2017-11-18T20:47:14.104Z,93.80
2017-11-18T20:49:42.350Z,94.30
2017-11-18T20:52:09.844Z,94.30
2017-11-18T20:54:38.269Z,93.90
2017-11-18T20:57:05.738Z,93.90
2017-11-18T20:59:33.270Z,94.30
2017-11-18T21:02:00.858Z,94.30
2017-11-18T21:04:28.334Z,94.30
2017-11-18T21:06:55.806Z,94.20
2017-11-18T21:09:24.106Z,94.20
2017-11-18T21:11:52.262Z,94.20
2017-11-18T21:14:20.516Z,94.30
2017-11-18T21:16:48.081Z,94.30
2017-11-18T21:19:16.504Z,94.60
2017-11-18T21:21:44.018Z,94.60
2017-11-18T21:24:11.731Z,94.70
2017-11-18T21:26:39.221Z,94.70
2017-11-18T21:29:07.502Z,94.60
2017-11-18T21:31:34.972Z,94.50
2017-11-18T21:34:03.949Z,94.80
2017-11-18T21:36:31.459Z,94.80
2017-11-18T21:38:58.936Z,94.90
2017-11-18T21:41:26.417Z,95.00
2017-11-18T21:43:53.922Z,95.00
2017-11-18T21:46:21.390Z,95.10
2017-11-18T21:48:48.866Z,95.00
2017-11-18T21:51:16.475Z,95.00
2017-11-18T21:53:44.725Z,95.00
2017-11-18T21:56:12.204Z,95.00
2017-11-18T21:58:40.450Z,94.70
2017-11-18T22:01:07.919Z,94.70
2017-11-18T22:03:35.404Z,94.60
2017-11-18T22:06:03.696Z,94.40
2017-11-18T22:08:31.185Z,94.40
2017-11-18T22:10:58.651Z,94.50
2017-11-18T22:13:26.135Z,94.50
2017-11-18T22:15:54.824Z,94.50
2017-11-18T22:18:23.076Z,94.80
2017-11-18T22:20:50.548Z,94.70
2017-11-18T22:23:18.038Z,94.80
2017-11-18T22:25:45.529Z,94.70
2017-11-18T22:28:13.033Z,94.80
2017-11-18T22:30:41.326Z,94.40
2017-11-18T22:33:09.592Z,94.40
2017-11-18T22:35:37.910Z,94.30
2017-11-18T22:38:06.240Z,94.30
2017-11-18T22:40:34.470Z,94.60
2017-11-18T22:43:01.978Z,94.60
2017-11-18T22:45:30.261Z,94.70
2017-11-18T22:47:57.735Z,94.70
2017-11-18T22:50:25.211Z,94.70
2017-11-18T22:52:52.833Z,94.80
2017-11-18T22:55:20.322Z,94.70
2017-11-18T22:57:47.879Z,94.70
2017-11-18T23:00:15.373Z,94.70
2017-11-18T23:02:42.846Z,94.70
2017-11-18T23:05:10.307Z,94.60
2017-11-18T23:07:38.595Z,94.60
2017-11-18T23:10:06.126Z,94.90
2017-11-18T23:12:33.756Z,94.50
2017-11-18T23:15:01.221Z,94.60
2017-11-18T23:17:28.799Z,94.60
2017-11-18T23:20:00.265Z,94.70
2017-11-18T23:22:28.523Z,95.10
2017-11-18T23:24:56.006Z,94.70
2017-11-18T23:27:25.699Z,95.00
2017-11-18T23:29:53.451Z,95.00
2017-11-18T23:32:20.913Z,95.40
2017-11-18T23:34:48.389Z,95.10
2017-11-18T23:37:16.626Z,95.10
2017-11-18T23:39:44.097Z,95.10
2017-11-18T23:42:11.574Z,95.10
2017-11-18T23:44:39.811Z,95.20
2017-11-18T23:47:07.405Z,95.20
2017-11-18T23:49:35.680Z,95.10
2017-11-18T23:52:03.176Z,95.10
2017-11-18T23:54:30.771Z,95.20
2017-11-18T23:56:58.253Z,95.10
2017-11-18T23:59:25.734Z,95.10
